Time;durP1;ratioP1;P1;durP2;ratioP2;P2;SDS_P1;SDS_P2;PMS_P1;PMS_P2;Temp;Humidity;BMP_temperature;BMP_pressure;BME280_temperature;BME280_humidity;BME280_pressure;Samples;Min_cycle;Max_cycle;Signal;HPM_P1;HPM_P2
2021/09/17 00:02:40;;;;;;;11.52;7.72;;;;;;;13.48;66.50;100076.09;10393842;28;20160;-64
2021/09/17 00:07:41;;;;;;;20.60;8.35;;;;;;;13.48;66.51;100076.09;10393662;28;20076;-64
2021/09/17 00:12:43;;;;;;;28.40;8.00;;;;;;;13.40;66.41;100067.88;10393259;28;20063;-64
2021/09/17 00:17:45;;;;;;;10.35;6.45;;;;;;;13.35;66.62;100070.81;10393134;28;20490;-64
2021/09/17 00:22:48;;;;;;;13.30;7.15;;;;;;;13.35;66.16;100070.81;10392606;28;20053;-64
2021/09/17 00:27:52;;;;;;;161.55;10.95;;;;;;;13.35;66.41;100068.19;10392986;28;20063;-64
2021/09/17 00:32:55;;;;;;;572.35;20.38;;;;;;;13.26;66.61;100067.97;10392908;28;20107;-64
2021/09/17 00:37:57;;;;;;;394.75;15.70;;;;;;;13.18;66.84;100068.50;10392735;28;20421;-64
2021/09/17 00:42:59;;;;;;;158.10;10.00;;;;;;;13.15;66.51;100057.38;10393404;28;20065;-64
2021/09/17 00:48:01;;;;;;;174.82;10.68;;;;;;;13.17;66.56;100053.69;10392738;28;20063;-64
2021/09/17 00:53:03;;;;;;;339.55;14.02;;;;;;;13.15;66.49;100057.38;10392592;28;20053;-64
2021/09/17 00:58:05;;;;;;;91.10;9.93;;;;;;;13.12;66.73;100053.19;10397871;28;20058;-64
2021/09/17 01:03:06;;;;;;;60.88;9.52;;;;;;;13.16;66.63;100052.03;10400797;28;20057;-64
2021/09/17 01:08:08;;;;;;;271.42;14.02;;;;;;;13.13;66.87;100049.59;10400398;28;20141;-64
2021/09/17 01:13:10;;;;;;;204.02;12.75;;;;;;;13.14;66.73;100032.06;10400744;28;20061;-64
2021/09/17 01:18:12;;;;;;;134.23;11.43;;;;;;;13.13;66.83;100036.47;10400186;28;20537;-64
2021/09/17 01:23:13;;;;;;;182.68;12.05;;;;;;;13.16;66.77;100033.66;10399988;28;20140;-64
2021/09/17 01:28:22;;;;;;;164.35;15.32;;;;;;;13.20;66.83;100036.88;10399635;28;20061;-64
2021/09/17 01:33:27;;;;;;;64.28;9.55;;;;;;;13.25;66.63;100032.19;10399987;28;20077;-64
2021/09/17 01:38:31;;;;;;;142.13;11.65;;;;;;;13.28;66.22;100022.28;10399153;28;20193;-64
2021/09/17 01:43:32;;;;;;;123.88;11.43;;;;;;;13.27;66.41;100023.22;10399362;28;20055;-64
2021/09/17 01:48:34;;;;;;;157.93;12.77;;;;;;;13.29;66.25;100023.13;10399456;28;20057;-64
2021/09/17 01:53:36;;;;;;;264.42;14.32;;;;;;;13.21;66.58;100014.94;10398602;28;20088;-64
2021/09/17 01:58:37;;;;;;;71.35;10.18;;;;;;;13.22;66.38;100016.63;10398723;28;20160;-64
2021/09/17 02:03:39;;;;;;;53.22;9.48;;;;;;;13.23;66.45;100005.19;10398219;28;20049;-64
2021/09/17 02:08:41;;;;;;;217.77;15.25;;;;;;;13.21;66.04;100009.69;10397725;28;20058;-64
2021/09/17 02:13:43;;;;;;;192.32;13.43;;;;;;;13.21;66.08;100001.81;10398051;28;20171;-64
2021/09/17 02:18:45;;;;;;;51.38;9.95;;;;;;;13.14;66.05;100005.81;10398164;28;20509;-64
2021/09/17 02:23:47;;;;;;;62.40;11.60;;;;;;;13.06;66.37;100010.75;10397575;28;20450;-64
2021/09/17 02:28:49;;;;;;;127.22;12.40;;;;;;;13.07;65.82;100008.00;10397264;28;20084;-64
2021/09/17 02:33:51;;;;;;;13.23;9.60;;;;;;;12.98;66.07;99999.94;10397313;28;20060;-64
2021/09/17 02:38:52;;;;;;;18.77;11.38;;;;;;;12.86;66.34;99989.31;10396771;28;20081;-65
2021/09/17 02:43:54;;;;;;;26.60;9.75;;;;;;;12.82;66.41;99987.84;10397404;28;20068;-64
2021/09/17 02:48:56;;;;;;;16.70;11.52;;;;;;;12.81;66.24;99985.31;10396791;28;20050;-64
2021/09/17 02:53:58;;;;;;;13.35;9.65;;;;;;;12.76;66.28;99990.88;10396263;28;20494;-65
2021/09/17 02:59:00;;;;;;;18.63;12.10;;;;;;;12.70;66.49;99991.28;10396430;28;20134;-64
2021/09/17 03:04:02;;;;;;;15.02;11.23;;;;;;;12.71;66.46;99986.88;10396141;28;20556;-64
2021/09/17 03:09:03;;;;;;;18.13;11.60;;;;;;;12.76;66.19;99988.25;10395340;28;20537;-64
2021/09/17 03:14:05;;;;;;;20.13;12.32;;;;;;;12.74;66.26;99984.88;10395648;28;20418;-64
2021/09/17 03:19:07;;;;;;;13.27;10.63;;;;;;;12.80;66.32;99984.47;10394870;28;20799;-64
2021/09/17 03:24:09;;;;;;;14.93;10.23;;;;;;;12.86;66.24;99980.63;10395931;28;20053;-64
2021/09/17 03:29:10;;;;;;;38.25;11.50;;;;;;;12.88;65.92;99974.28;10395495;28;20577;-63
2021/09/17 03:34:12;;;;;;;24.30;11.60;;;;;;;12.81;66.11;99975.66;10395249;28;20100;-63
2021/09/17 03:39:15;;;;;;;138.30;16.80;;;;;;;12.91;65.73;99979.34;10394537;28;20414;-64
2021/09/17 03:44:17;;;;;;;12.40;9.73;;;;;;;12.90;65.91;99967.16;10394864;28;20057;-64
2021/09/17 03:49:18;;;;;;;105.80;13.13;;;;;;;12.94;65.83;99971.25;10394235;28;20060;-64
2021/09/17 03:54:24;;;;;;;134.40;16.55;;;;;;;12.93;65.65;99966.09;10394017;28;20059;-64
2021/09/17 03:59:26;;;;;;;219.00;15.45;;;;;;;12.92;65.64;99965.25;10394101;28;20053;-64
2021/09/17 04:04:28;;;;;;;600.08;24.70;;;;;;;12.90;65.48;99961.91;10394012;28;20410;-64
2021/09/17 04:09:30;;;;;;;40.00;12.43;;;;;;;12.93;65.64;99966.97;10393514;28;20505;-64
2021/09/17 04:14:31;;;;;;;380.23;19.27;;;;;;;12.93;65.35;99959.06;10393674;28;20046;-64
2021/09/17 04:19:36;;;;;;;419.33;27.95;;;;;;;12.94;65.28;99966.00;10393479;28;20128;-64
2021/09/17 04:24:38;;;;;;;84.97;11.30;;;;;;;12.87;65.84;99964.75;10393285;28;20127;-64
2021/09/17 04:29:40;;;;;;;97.35;11.02;;;;;;;12.92;65.22;99956.56;10391768;28;20116;-64
2021/09/17 04:34:41;;;;;;;50.15;8.38;;;;;;;12.95;64.94;99957.19;10393032;28;20307;-64
2021/09/17 04:39:44;;;;;;;50.42;9.38;;;;;;;12.97;64.42;99964.94;10392851;28;20053;-64
2021/09/17 04:44:45;;;;;;;37.20;9.52;;;;;;;12.88;64.37;99965.59;10392816;28;20060;-64
2021/09/17 04:49:47;;;;;;;40.28;9.02;;;;;;;12.62;64.34;99977.84;10392587;28;20055;-64
2021/09/17 04:54:49;;;;;;;46.00;9.68;;;;;;;12.52;64.88;99979.41;10392664;28;20053;-64
2021/09/17 04:59:50;;;;;;;275.45;19.77;;;;;;;12.59;64.93;99979.84;10392538;28;20053;-64
2021/09/17 05:04:52;;;;;;;16.88;9.43;;;;;;;12.63;64.92;99976.06;10390988;28;20408;-64
2021/09/17 05:09:54;;;;;;;8.52;5.38;;;;;;;12.74;64.41;99966.53;10390733;28;20064;-64
2021/09/17 05:14:57;;;;;;;11.82;6.75;;;;;;;12.81;64.55;99970.41;10392122;28;20067;-64
2021/09/17 05:19:59;;;;;;;6.88;6.18;;;;;;;12.84;64.11;99964.13;10391848;28;20149;-64
2021/09/17 05:25:01;;;;;;;15.65;6.40;;;;;;;12.84;64.00;99967.56;10390894;28;20060;-64
2021/09/17 05:30:05;;;;;;;16.75;6.72;;;;;;;12.83;64.14;99968.53;10391691;28;20144;-64
2021/09/17 05:35:10;;;;;;;35.53;8.25;;;;;;;12.90;64.02;99974.22;10392308;28;20049;-65
2021/09/17 05:40:12;;;;;;;51.72;9.48;;;;;;;12.91;63.79;99981.13;10391858;28;20049;-64
2021/09/17 05:45:14;;;;;;;51.35;9.98;;;;;;;12.77;64.44;99975.97;10398509;28;20060;-64
2021/09/17 05:50:16;;;;;;;126.55;10.43;;;;;;;12.84;64.27;99979.88;10399014;28;20053;-64
2021/09/17 05:55:18;;;;;;;29.35;9.02;;;;;;;12.87;64.30;99985.75;10399021;28;20053;-64
2021/09/17 06:00:19;;;;;;;129.25;11.50;;;;;;;12.91;64.31;99991.63;10397536;28;20053;-65
2021/09/17 06:05:21;;;;;;;163.50;11.75;;;;;;;12.83;64.68;99989.53;10399139;28;20129;-64
2021/09/17 06:10:23;;;;;;;165.00;13.80;;;;;;;12.88;64.60;99987.41;10398072;28;20061;-65
2021/09/17 06:15:25;;;;;;;327.30;15.45;;;;;;;12.90;64.60;100003.91;10397933;28;20374;-64
2021/09/17 06:20:28;;;;;;;145.88;14.20;;;;;;;12.95;64.94;99999.19;10398648;28;20325;-64
2021/09/17 06:25:29;;;;;;;336.30;18.45;;;;;;;12.96;64.52;100000.84;10398195;28;20512;-65
2021/09/17 06:30:31;;;;;;;207.43;15.18;;;;;;;12.93;64.76;100000.22;10396209;28;20144;-65
2021/09/17 06:35:34;;;;;;;183.32;15.15;;;;;;;13.09;64.50;100002.66;10397690;28;20125;-65
2021/09/17 06:40:36;;;;;;;143.27;12.98;;;;;;;13.24;64.58;100002.44;10397334;28;20061;-65
2021/09/17 06:45:37;;;;;;;152.70;14.80;;;;;;;13.70;63.47;100000.06;10396950;28;20153;-65
2021/09/17 06:50:39;;;;;;;112.13;12.70;;;;;;;14.15;62.55;99994.09;10396726;28;20126;-65
2021/09/17 06:55:41;;;;;;;34.60;10.60;;;;;;;14.27;62.24;99990.56;10396059;28;20083;-65
2021/09/17 07:00:42;;;;;;;162.07;14.55;;;;;;;14.27;62.21;99987.09;10396717;28;20068;-66
2021/09/17 07:05:44;;;;;;;48.80;9.57;;;;;;;14.22;62.60;99984.81;10396131;28;20053;-66
2021/09/17 07:10:48;;;;;;;79.72;10.75;;;;;;;14.49;61.74;99980.16;10396035;28;20058;-65
2021/09/17 07:15:50;;;;;;;86.15;12.75;;;;;;;14.62;61.19;99981.84;10395661;28;20053;-66
2021/09/17 07:20:51;;;;;;;16.70;10.27;;;;;;;14.64;61.71;99985.22;10394442;28;20433;-65
2021/09/17 07:25:53;;;;;;;30.67;11.70;;;;;;;14.76;61.21;99979.03;10395347;28;20054;-65
2021/09/17 07:30:55;;;;;;;13.98;10.63;;;;;;;14.98;60.63;99981.72;10395252;28;20064;-65
2021/09/17 07:35:57;;;;;;;11.70;10.50;;;;;;;15.14;60.13;99969.84;10395113;28;20057;-65
2021/09/17 07:40:59;;;;;;;15.50;10.60;;;;;;;15.23;59.99;99969.13;10395004;28;20143;-65
2021/09/17 07:46:00;;;;;;;13.35;9.88;;;;;;;15.18;60.03;99970.47;10393404;28;20064;-65
2021/09/17 07:51:02;;;;;;;13.43;10.43;;;;;;;15.37;59.67;99970.69;10394703;28;20060;-65
2021/09/17 07:56:04;;;;;;;11.45;8.98;;;;;;;15.52;59.40;99964.25;10394528;28;20053;-65
2021/09/17 08:01:05;;;;;;;14.93;8.95;;;;;;;15.72;59.36;99967.91;10394426;28;20550;-65
2021/09/17 08:06:09;;;;;;;9.55;8.65;;;;;;;16.03;58.82;99965.31;10392472;28;20060;-65
2021/09/17 08:11:10;;;;;;;14.15;12.25;;;;;;;15.85;59.21;99972.09;10393714;28;20506;-66
2021/09/17 08:16:12;;;;;;;10.63;9.52;;;;;;;15.76;59.24;99961.44;10393291;28;20128;-65
2021/09/17 08:21:14;;;;;;;12.57;9.45;;;;;;;15.80;59.59;99968.97;10393196;28;20572;-65
2021/09/17 08:26:18;;;;;;;12.02;9.43;;;;;;;16.02;59.31;99973.34;10393349;28;20053;-65
2021/09/17 08:31:20;;;;;;;12.32;9.77;;;;;;;16.18;59.24;99971.16;10393004;28;20075;-65
2021/09/17 08:36:21;;;;;;;12.85;8.88;;;;;;;16.55;58.89;99972.41;10393010;28;20056;-65
2021/09/17 08:41:24;;;;;;;11.15;8.95;;;;;;;16.79;58.39;99972.19;10393019;28;20556;-65
2021/09/17 08:46:26;;;;;;;11.40;9.50;;;;;;;16.90;58.20;99972.09;10393054;28;20515;-65
2021/09/17 08:51:28;;;;;;;13.38;8.88;;;;;;;17.06;57.74;99969.00;10392607;28;20057;-65
2021/09/17 08:56:30;;;;;;;9.20;8.15;;;;;;;17.31;57.71;99973.81;10392963;28;20049;-65
2021/09/17 09:01:36;;;;;;;10.52;9.30;;;;;;;17.32;57.49;99968.41;10392332;28;20535;-65
2021/09/17 09:06:46;;;;;;;11.85;8.20;;;;;;;17.62;57.98;99957.81;10392227;28;20049;-65
2021/09/17 09:11:52;;;;;;;9.90;8.88;;;;;;;17.78;57.01;99958.13;10392295;28;20060;-65
2021/09/17 09:16:56;;;;;;;13.07;8.25;;;;;;;17.97;56.71;99953.84;10394077;28;20053;-65
2021/09/17 09:22:04;;;;;;;12.55;7.15;;;;;;;18.30;56.74;99940.25;10399434;28;20489;-65
2021/09/17 09:27:07;;;;;;;10.55;7.32;;;;;;;18.47;55.84;99942.16;10400251;28;20136;-65
2021/09/17 09:32:31;;;;;;;10.60;7.13;;;;;;;18.77;55.11;99941.16;10399655;28;20153;-65
2021/09/17 09:37:36;;;;;;;11.52;7.47;;;;;;;19.09;54.64;99939.81;10398376;28;20053;-66
2021/09/17 09:42:44;;;;;;;10.68;6.80;;;;;;;19.23;54.11;99938.50;10400058;28;20045;-65
2021/09/17 09:47:48;;;;;;;10.60;7.05;;;;;;;19.44;53.75;99926.66;10399188;28;20041;-65
2021/09/17 09:52:52;;;;;;;12.52;7.32;;;;;;;19.63;53.63;99917.75;10399386;28;20063;-65
2021/09/17 09:57:57;;;;;;;10.98;6.90;;;;;;;19.70;53.08;99923.31;10399156;28;20049;-65
2021/09/17 10:02:59;;;;;;;11.18;7.47;;;;;;;19.79;52.69;99925.03;10398344;28;20528;-65
2021/09/17 10:08:02;;;;;;;11.15;7.40;;;;;;;19.96;52.40;99925.09;10398292;28;20061;-65
2021/09/17 10:13:03;;;;;;;11.63;7.95;;;;;;;20.04;52.36;99921.69;10398189;28;20468;-65
2021/09/17 10:18:05;;;;;;;16.63;11.20;;;;;;;20.01;51.40;99917.50;10396916;28;20121;-65
2021/09/17 10:23:27;;;;;;;13.98;8.57;;;;;;;20.24;50.98;99915.22;10396472;28;20058;-65
2021/09/17 10:28:30;;;;;;;15.35;9.68;;;;;;;20.53;50.57;99913.13;10395394;28;20133;-65
2021/09/17 10:33:31;;;;;;;15.63;9.57;;;;;;;20.74;50.02;99921.59;10397500;28;20156;-65
2021/09/17 10:38:35;;;;;;;15.23;9.80;;;;;;;20.88;49.72;99922.84;10397615;28;20111;-65
2021/09/17 10:43:43;;;;;;;12.43;9.00;;;;;;;21.15;49.19;99908.53;10397776;28;20100;-64
2021/09/17 10:48:55;;;;;;;12.27;9.43;;;;;;;21.36;48.31;99903.66;10395709;28;20062;-65
2021/09/17 10:54:01;;;;;;;11.75;7.85;;;;;;;21.75;47.96;99891.44;10397080;28;20049;-65
2021/09/17 10:59:14;;;;;;;14.98;9.57;;;;;;;21.77;47.14;99890.31;10397004;28;20171;-64
2021/09/17 11:04:20;;;;;;;18.75;9.50;;;;;;;21.92;46.78;99892.31;10396052;28;20136;-64
2021/09/17 11:09:44;;;;;;;13.60;8.32;;;;;;;21.97;46.78;99898.81;10395744;28;20653;-64
2021/09/17 11:15:01;;;;;;;16.40;9.25;;;;;;;22.12;45.81;99888.38;10395746;28;20416;-64
2021/09/17 11:20:09;;;;;;;13.85;8.35;;;;;;;22.04;46.90;99886.53;10395432;28;20056;-65
2021/09/17 11:25:10;;;;;;;20.45;9.75;;;;;;;22.27;46.18;99876.84;10395673;28;20406;-65
2021/09/17 11:30:13;;;;;;;10.88;8.52;;;;;;;22.40;45.75;99871.03;10395562;28;20065;-65
2021/09/17 11:35:15;;;;;;;14.82;7.65;;;;;;;22.41;46.05;99862.84;10394990;28;20057;-65
2021/09/17 11:40:17;;;;;;;11.63;7.68;;;;;;;22.64;45.53;99861.16;10395054;28;20083;-64
2021/09/17 11:45:21;;;;;;;9.63;7.07;;;;;;;22.73;45.72;99855.78;10393336;28;20205;-64
2021/09/17 11:50:27;;;;;;;15.00;8.27;;;;;;;22.62;44.61;99849.81;10394510;28;20145;-65
2021/09/17 11:55:29;;;;;;;12.23;7.28;;;;;;;22.57;45.49;99848.69;10394253;28;20059;-64
2021/09/17 12:00:31;;;;;;;10.32;6.70;;;;;;;22.44;45.63;99857.19;10405352;28;20044;-64
2021/09/17 12:05:38;;;;;;;10.25;7.30;;;;;;;22.49;45.03;99851.38;10434831;28;20711;-64
2021/09/17 12:10:44;;;;;;;8.50;5.90;;;;;;;22.44;45.94;99841.22;10434609;28;20064;-64
2021/09/17 12:15:46;;;;;;;9.60;6.25;;;;;;;22.34;46.18;99835.22;10434829;28;20052;-64
2021/09/17 12:20:54;;;;;;;11.07;6.20;;;;;;;22.44;45.87;99829.72;10434717;28;20057;-64
2021/09/17 12:26:18;;;;;;;10.45;5.97;;;;;;;22.53;45.83;99834.88;10416752;28;20133;-64
2021/09/17 12:31:35;;;;;;;9.90;5.88;;;;;;;22.89;44.55;99829.94;10394093;28;20057;-64
2021/09/17 12:36:38;;;;;;;7.90;4.90;;;;;;;23.10;44.83;99829.38;10393117;28;20091;-64
2021/09/17 12:41:40;;;;;;;9.38;4.70;;;;;;;23.10;44.77;99824.88;10393246;28;20055;-64
2021/09/17 12:46:44;;;;;;;12.25;5.43;;;;;;;23.23;44.15;99827.78;10393074;28;20478;-64
2021/09/17 12:51:55;;;;;;;8.35;4.50;;;;;;;23.27;43.85;99828.25;10391712;28;20061;-64
2021/09/17 12:57:18;;;;;;;10.38;4.57;;;;;;;23.20;42.77;99824.63;10392976;28;20053;-64
2021/09/17 13:02:20;;;;;;;8.48;5.00;;;;;;;23.16;43.80;99818.00;10392727;28;20540;-64
2021/09/17 13:07:22;;;;;;;8.63;3.92;;;;;;;23.40;43.59;99818.72;10392246;28;20506;-64
2021/09/17 13:12:24;;;;;;;10.55;4.80;;;;;;;23.18;43.41;99826.66;10392088;28;20597;-64
2021/09/17 13:17:25;;;;;;;9.73;4.07;;;;;;;23.15;44.22;99811.81;10391571;28;20053;-64
2021/09/17 13:22:27;;;;;;;10.30;4.65;;;;;;;22.89;44.39;99802.44;10392635;28;20140;-64
2021/09/17 13:27:29;;;;;;;9.80;3.90;;;;;;;22.85;44.76;99801.13;10392527;28;20132;-64
2021/09/17 13:32:30;;;;;;;8.38;4.13;;;;;;;22.85;44.83;99791.28;10392374;28;20501;-64
2021/09/17 13:37:34;;;;;;;8.82;4.00;;;;;;;22.94;44.78;99794.75;10391789;28;20053;-64
2021/09/17 13:42:39;;;;;;;9.73;4.20;;;;;;;22.86;44.48;99789.47;10391864;28;20057;-64
2021/09/17 13:47:43;;;;;;;8.40;3.70;;;;;;;22.98;44.88;99788.91;10392078;28;20140;-64
2021/09/17 13:52:48;;;;;;;9.50;4.30;;;;;;;22.98;44.21;99788.91;10391696;28;20364;-64
2021/09/17 13:57:51;;;;;;;7.03;3.90;;;;;;;23.01;44.34;99790.38;10391690;28;20053;-65
2021/09/17 14:02:55;;;;;;;6.78;3.47;;;;;;;22.77;44.56;99785.16;10391874;28;20060;-65
2021/09/17 14:07:58;;;;;;;11.13;4.13;;;;;;;22.70;45.21;99788.47;10397507;28;20506;-65
2021/09/17 14:12:59;;;;;;;4.80;3.20;;;;;;;22.66;45.48;99781.00;10398498;28;20068;-64
2021/09/17 14:18:03;;;;;;;10.73;4.55;;;;;;;22.37;44.87;99776.25;10398432;28;20137;-63
2021/09/17 14:23:05;;;;;;;6.43;3.60;;;;;;;22.67;44.92;99775.53;10396811;28;20057;-64
2021/09/17 14:28:06;;;;;;;6.60;3.70;;;;;;;22.86;44.16;99770.81;10398170;28;20144;-64
2021/09/17 14:33:08;;;;;;;7.75;4.00;;;;;;;22.70;43.66;99763.66;10397942;28;20733;-64
2021/09/17 14:38:10;;;;;;;6.55;3.20;;;;;;;22.55;44.51;99763.56;10397838;28;20519;-65
2021/09/17 14:43:12;;;;;;;7.55;3.65;;;;;;;22.32;44.88;99761.78;10397115;28;20144;-64
2021/09/17 14:48:14;;;;;;;9.57;3.90;;;;;;;22.31;44.42;99757.47;10397123;28;20057;-64
2021/09/17 14:53:15;;;;;;;7.13;3.30;;;;;;;22.37;45.58;99760.25;10396893;28;20612;-63
2021/09/17 14:58:17;;;;;;;6.68;3.53;;;;;;;22.22;45.50;99754.00;10396526;28;20057;-63
2021/09/17 15:03:19;;;;;;;6.45;3.63;;;;;;;22.02;45.24;99752.69;10396740;28;20057;-63
2021/09/17 15:08:29;;;;;;;8.90;3.40;;;;;;;21.77;46.16;99757.19;10396274;28;20062;-63
2021/09/17 15:13:33;;;;;;;8.93;4.97;;;;;;;21.87;46.21;99757.00;10395609;28;20172;-63
2021/09/17 15:18:35;;;;;;;17.55;12.35;;;;;;;21.75;46.04;99758.34;10396137;28;20061;-64
2021/09/17 15:23:37;;;;;;;13.48;8.23;;;;;;;21.39;47.01;99759.66;10401454;28;20057;-63
2021/09/17 15:28:39;;;;;;;11.38;5.85;;;;;;;21.04;47.82;99753.59;10434556;28;20049;-63
2021/09/17 15:33:41;;;;;;;6.38;3.80;;;;;;;20.91;48.59;99757.69;10395209;28;20064;-63
2021/09/17 15:38:42;;;;;;;7.13;3.22;;;;;;;20.68;48.31;99761.94;10396087;28;20053;-64
2021/09/17 15:43:44;;;;;;;6.32;3.50;;;;;;;20.61;49.60;99761.75;10414555;28;20588;-65
2021/09/17 15:48:46;;;;;;;8.05;5.30;;;;;;;20.69;50.53;99766.25;10394778;28;20064;-65
2021/09/17 15:53:48;;;;;;;10.98;3.70;;;;;;;20.52;52.17;99752.03;10394519;28;20057;-65
2021/09/17 15:58:53;;;;;;;5.20;3.58;;;;;;;20.51;52.77;99755.69;10394215;28;20059;-65
2021/09/17 16:03:55;;;;;;;6.70;4.95;;;;;;;20.55;51.44;99754.38;10394774;28;20338;-65
2021/09/17 16:08:57;;;;;;;7.63;3.67;;;;;;;20.69;51.92;99758.28;10394194;28;20069;-65
2021/09/17 16:13:58;;;;;;;5.68;4.03;;;;;;;20.69;52.02;99755.63;10393905;28;20080;-65
2021/09/17 16:19:00;;;;;;;9.45;4.03;;;;;;;20.67;52.21;99752.28;10394643;28;20144;-65
2021/09/17 16:24:02;;;;;;;5.97;3.47;;;;;;;20.52;52.30;99757.34;10394092;28;20063;-64
2021/09/17 16:29:05;;;;;;;6.68;3.33;;;;;;;20.43;52.65;99747.69;10393445;28;20469;-65
2021/09/17 16:34:06;;;;;;;7.07;3.25;;;;;;;20.21;53.67;99750.88;10392785;28;20143;-65
2021/09/17 16:39:08;;;;;;;5.43;3.30;;;;;;;19.98;53.99;99757.69;10393409;28;20049;-65
2021/09/17 16:44:10;;;;;;;8.23;4.15;;;;;;;19.68;54.35;99751.00;10392695;28;20485;-65
2021/09/17 16:49:12;;;;;;;5.40;3.75;;;;;;;19.51;54.62;99759.78;10392594;28;20438;-65
2021/09/17 16:54:14;;;;;;;6.10;3.80;;;;;;;19.35;55.21;99759.63;10392632;28;20148;-64
2021/09/17 16:59:16;;;;;;;8.45;3.80;;;;;;;19.15;55.71;99764.25;10392761;28;20065;-65
2021/09/17 17:04:19;;;;;;;7.22;3.85;;;;;;;19.05;56.34;99758.19;10392542;28;20067;-64
2021/09/17 17:09:21;;;;;;;6.00;3.85;;;;;;;18.92;57.23;99749.72;10392347;28;20057;-64
2021/09/17 17:14:23;;;;;;;7.05;4.13;;;;;;;18.85;57.33;99758.41;10391420;28;20485;-64
2021/09/17 17:19:24;;;;;;;11.00;4.30;;;;;;;18.74;58.21;99750.66;10392246;28;20350;-65
2021/09/17 17:24:26;;;;;;;6.72;4.18;;;;;;;18.61;58.26;99743.88;10391789;28;20076;-64
2021/09/17 17:29:28;;;;;;;7.38;4.13;;;;;;;18.53;58.28;99748.25;10392200;28;20061;-65
2021/09/17 17:34:30;;;;;;;8.27;4.47;;;;;;;18.39;58.57;99749.56;10391678;28;20835;-65
2021/09/17 17:39:36;;;;;;;8.10;3.95;;;;;;;18.33;58.82;99755.44;10396984;28;20727;-64
2021/09/17 17:44:38;;;;;;;9.65;4.68;;;;;;;18.21;59.32;99755.75;10399351;28;20050;-64
2021/09/17 17:49:42;;;;;;;8.10;4.40;;;;;;;18.09;59.58;99756.88;10399003;28;20898;-65
2021/09/17 17:54:44;;;;;;;6.47;4.53;;;;;;;17.95;59.87;99755.53;10397774;28;20057;-65
2021/09/17 17:59:45;;;;;;;7.88;4.88;;;;;;;17.72;60.47;99756.81;10398740;28;20152;-64
2021/09/17 18:04:47;;;;;;;10.55;5.05;;;;;;;17.53;60.50;99760.31;10398707;28;20057;-64
2021/09/17 18:09:49;;;;;;;9.73;4.72;;;;;;;17.37;61.20;99761.81;10398500;28;20055;-64
2021/09/17 18:14:51;;;;;;;9.18;5.03;;;;;;;17.30;61.05;99768.63;10397794;28;20064;-64
2021/09/17 18:19:53;;;;;;;8.02;5.28;;;;;;;17.15;61.51;99764.69;10398227;28;20050;-64
2021/09/17 18:24:54;;;;;;;7.75;5.30;;;;;;;17.04;61.63;99786.78;10397678;28;20056;-65
2021/09/17 18:29:56;;;;;;;8.95;5.13;;;;;;;16.94;61.75;99789.41;10398172;28;20057;-64
2021/09/17 18:34:58;;;;;;;8.43;4.80;;;;;;;16.81;62.00;99795.91;10429487;28;20052;-64
2021/09/17 18:39:59;;;;;;;9.18;5.57;;;;;;;16.67;62.49;99794.47;10438271;28;20053;-64
2021/09/17 18:45:02;;;;;;;6.97;5.15;;;;;;;16.57;62.57;99790.94;10437655;28;20053;-64
2021/09/17 18:50:05;;;;;;;10.02;5.25;;;;;;;16.48;62.54;99804.97;10436817;28;20140;-64
2021/09/17 18:55:07;;;;;;;7.88;5.60;;;;;;;16.39;62.77;99803.06;10437769;28;20064;-64
2021/09/17 19:00:10;;;;;;;8.80;5.93;;;;;;;16.29;63.37;99812.75;10436569;28;20106;-64
2021/09/17 19:05:12;;;;;;;8.93;5.63;;;;;;;16.23;63.20;99810.63;10437366;28;20053;-64
2021/09/17 19:10:15;;;;;;;11.50;5.60;;;;;;;16.16;63.47;99814.75;10437191;28;20059;-65
2021/09/17 19:15:17;;;;;;;9.82;6.55;;;;;;;16.05;63.66;99820.94;10436865;28;20286;-65
2021/09/17 19:20:19;;;;;;;11.52;6.43;;;;;;;15.96;63.80;99831.41;10395663;28;20207;-64
2021/09/17 19:25:20;;;;;;;11.32;6.10;;;;;;;15.88;63.92;99829.41;10395434;28;20499;-64
2021/09/17 19:30:23;;;;;;;8.70;5.78;;;;;;;15.80;63.86;99834.50;10395741;28;20144;-64
2021/09/17 19:35:24;;;;;;;10.77;7.13;;;;;;;15.72;64.53;99834.28;10394965;28;20406;-64
2021/09/17 19:40:27;;;;;;;13.70;7.60;;;;;;;15.71;64.24;99830.00;10394964;28;20087;-65
2021/09/17 19:45:28;;;;;;;8.07;6.78;;;;;;;15.64;64.04;99843.78;10394852;28;20322;-65
2021/09/17 19:50:31;;;;;;;14.75;6.35;;;;;;;15.49;64.43;99845.00;10394781;28;20046;-65
2021/09/17 19:55:33;;;;;;;9.82;6.15;;;;;;;15.48;64.47;99844.16;10394906;28;20049;-64
2021/09/17 20:00:34;;;;;;;10.05;6.70;;;;;;;15.41;64.33;99854.38;10394025;28;20425;-64
2021/09/17 20:05:36;;;;;;;8.35;6.53;;;;;;;15.34;64.77;99865.53;10394401;28;20069;-65
2021/09/17 20:10:39;;;;;;;10.43;6.60;;;;;;;15.30;64.91;99861.47;10393955;28;20307;-64
2021/09/17 20:15:40;;;;;;;8.90;6.72;;;;;;;15.25;64.86;99866.25;10394008;28;20053;-64
2021/09/17 20:20:43;;;;;;;7.88;6.68;;;;;;;15.20;64.80;99858.75;10393606;28;20166;-65
2021/09/17 20:25:45;;;;;;;10.65;6.75;;;;;;;15.10;64.59;99854.31;10393843;28;20055;-65
2021/09/17 20:30:48;;;;;;;10.35;6.32;;;;;;;14.99;64.92;99862.22;10393789;28;20053;-65
2021/09/17 20:35:55;;;;;;;11.70;6.78;;;;;;;14.94;65.05;99867.03;10393365;28;20076;-64
2021/09/17 20:40:57;;;;;;;12.10;7.03;;;;;;;14.89;65.04;99861.28;10393309;28;20060;-65
2021/09/17 20:45:59;;;;;;;13.70;6.78;;;;;;;14.81;65.11;99868.94;10393539;28;20050;-65
2021/09/17 20:51:01;;;;;;;13.68;7.70;;;;;;;14.80;65.22;99867.28;10392649;28;20054;-64
2021/09/17 20:56:03;;;;;;;12.80;9.27;;;;;;;14.72;64.80;99878.38;10392655;28;20053;-64
2021/09/17 21:01:05;;;;;;;9.40;6.50;;;;;;;14.56;65.25;99877.91;10393011;28;20395;-65
2021/09/17 21:06:07;;;;;;;8.40;6.40;;;;;;;14.55;65.23;99884.94;10392369;28;20096;-65
2021/09/17 21:11:08;;;;;;;9.50;6.97;;;;;;;14.52;65.47;99894.88;10403521;28;20150;-64
2021/09/17 21:16:10;;;;;;;12.20;7.07;;;;;;;14.50;65.37;99892.38;10440658;28;20090;-65
2021/09/17 21:21:12;;;;;;;9.82;6.50;;;;;;;14.43;65.26;99893.75;10441522;28;20064;-65
2021/09/17 21:26:14;;;;;;;9.77;7.25;;;;;;;14.36;65.32;99891.72;10441323;28;20531;-65
2021/09/17 21:31:16;;;;;;;14.93;8.07;;;;;;;14.30;65.98;99895.66;10417858;28;20053;-65
2021/09/17 21:36:17;;;;;;;13.48;7.88;;;;;;;14.27;65.36;99898.50;10399732;28;20494;-65
2021/09/17 21:41:19;;;;;;;8.43;6.57;;;;;;;14.21;65.34;99896.31;10399614;28;20492;-65
2021/09/17 21:46:21;;;;;;;12.30;7.65;;;;;;;14.08;65.71;99898.22;10398368;28;20539;-64
2021/09/17 21:51:23;;;;;;;18.23;6.97;;;;;;;14.06;65.73;99894.03;10399420;28;20132;-64
2021/09/17 21:56:24;;;;;;;22.17;7.47;;;;;;;14.03;65.87;99897.72;10399584;28;20059;-64
2021/09/17 22:01:26;;;;;;;16.55;7.00;;;;;;;14.01;65.57;99896.97;10398700;28;20076;-64
2021/09/17 22:06:28;;;;;;;12.57;7.18;;;;;;;13.98;65.85;99905.13;10397819;28;20054;-64
2021/09/17 22:11:29;;;;;;;10.98;7.50;;;;;;;13.95;65.77;99896.59;10398745;28;20216;-64
2021/09/17 22:16:31;;;;;;;17.08;7.35;;;;;;;13.91;65.73;99896.00;10398508;28;20140;-64
2021/09/17 22:21:33;;;;;;;12.50;7.15;;;;;;;13.81;65.72;99895.00;10398335;28;20394;-64
2021/09/17 22:26:34;;;;;;;22.98;7.95;;;;;;;13.73;65.81;99900.81;10397746;28;20055;-64
2021/09/17 22:31:36;;;;;;;9.80;7.95;;;;;;;13.70;65.56;99894.94;10398119;28;20060;-65
2021/09/17 22:36:38;;;;;;;14.52;7.65;;;;;;;13.60;65.94;99902.66;10397506;28;20054;-64
2021/09/17 22:41:40;;;;;;;13.30;7.97;;;;;;;13.60;66.23;99907.06;10397256;28;20423;-65
2021/09/17 22:46:42;;;;;;;10.73;7.93;;;;;;;13.61;66.01;99904.34;10397216;28;20137;-64
2021/09/17 22:51:44;;;;;;;14.32;9.98;;;;;;;13.55;65.29;99899.53;10397030;28;20061;-64
2021/09/17 22:56:46;;;;;;;11.27;8.68;;;;;;;13.28;65.83;99903.25;10395590;28;20057;-64
2021/09/17 23:01:48;;;;;;;11.20;7.82;;;;;;;13.29;66.26;99897.06;10396717;28;20330;-64
2021/09/17 23:06:50;;;;;;;11.23;8.40;;;;;;;13.35;66.00;99894.00;10395159;28;20060;-64
2021/09/17 23:11:51;;;;;;;10.68;8.10;;;;;;;13.39;65.94;99898.09;10396238;28;20053;-64